Weather at Sandy Flats Airport

Public forecast

Using degrees Fahrenheit for public forecast. Weather courtesy of forecast.io.

Closest aviation weather report (METAR) to Sandy Flats Airport

Closest report is South St Paul Municipal Richard E Fleming field, 13.1 nm (24.3 km) NW. Retrieved 2021/07/28 00:35 UTC (19 minutes ago):

KSGS 280035Z AUTO 10004KT 10SM CLR 32/22 A2995 RMK AO2 T03200222

Closest aviation forecast (TAF) to Sandy Flats Airport

Forecast is more than 12 hours old.

Closest forecast is Red Wing Regional Airport, 15.6 nm (28.9 km) ESE. Retrieved 2018/02/05 00:21 UTC (3 years ago):

TAF KRGK 052320Z 0600/0624 27008KT P6SM FEW025 BKN035 FM060200 30007KT P6SM FEW200 FM061100 VRB03KT P6SM FEW250 FM062000 23004KT P6SM BKN250 AMD NOT SKED